sensor_id;sensor_type;location;lat;lon;timestamp;P1;durP1;ratioP1;P2;durP2;ratioP2
66927;SDS011;59882;45.624;11.698;2023-07-31T00:00:24;4.63;;;2.20;;
66927;SDS011;59882;45.624;11.698;2023-07-31T00:02:51;4.17;;;2.10;;
66927;SDS011;59882;45.624;11.698;2023-07-31T00:05:17;6.38;;;2.40;;
66927;SDS011;59882;45.624;11.698;2023-07-31T00:07:42;5.72;;;3.15;;
66927;SDS011;59882;45.624;11.698;2023-07-31T00:10:08;7.03;;;2.93;;
66927;SDS011;59882;45.624;11.698;2023-07-31T00:12:34;4.40;;;2.35;;
66927;SDS011;59882;45.624;11.698;2023-07-31T00:15:00;6.50;;;3.13;;
66927;SDS011;59882;45.624;11.698;2023-07-31T00:17:27;5.35;;;3.47;;
66927;SDS011;59882;45.624;11.698;2023-07-31T00:19:53;6.43;;;3.00;;
66927;SDS011;59882;45.624;11.698;2023-07-31T00:22:18;6.03;;;2.80;;
66927;SDS011;59882;45.624;11.698;2023-07-31T00:24:44;6.83;;;2.83;;
66927;SDS011;59882;45.624;11.698;2023-07-31T00:27:09;5.57;;;2.88;;
66927;SDS011;59882;45.624;11.698;2023-07-31T00:29:35;5.93;;;3.07;;
66927;SDS011;59882;45.624;11.698;2023-07-31T00:32:00;6.63;;;3.05;;
66927;SDS011;59882;45.624;11.698;2023-07-31T00:34:26;4.90;;;2.93;;
66927;SDS011;59882;45.624;11.698;2023-07-31T00:36:52;4.57;;;1.97;;
66927;SDS011;59882;45.624;11.698;2023-07-31T00:39:17;4.65;;;2.58;;
66927;SDS011;59882;45.624;11.698;2023-07-31T00:41:43;6.23;;;2.80;;
66927;SDS011;59882;45.624;11.698;2023-07-31T00:44:08;11.30;;;3.07;;
66927;SDS011;59882;45.624;11.698;2023-07-31T00:46:34;7.47;;;2.88;;
66927;SDS011;59882;45.624;11.698;2023-07-31T00:48:59;7.27;;;3.07;;
66927;SDS011;59882;45.624;11.698;2023-07-31T00:51:25;7.35;;;3.20;;
66927;SDS011;59882;45.624;11.698;2023-07-31T00:53:51;5.03;;;2.73;;
66927;SDS011;59882;45.624;11.698;2023-07-31T00:56:19;5.90;;;2.88;;
66927;SDS011;59882;45.624;11.698;2023-07-31T00:58:44;7.50;;;3.10;;
66927;SDS011;59882;45.624;11.698;2023-07-31T01:01:10;9.25;;;2.90;;
66927;SDS011;59882;45.624;11.698;2023-07-31T01:03:36;6.63;;;3.40;;
66927;SDS011;59882;45.624;11.698;2023-07-31T01:06:14;7.43;;;2.67;;
66927;SDS011;59882;45.624;11.698;2023-07-31T01:13:42;6.10;;;2.83;;
66927;SDS011;59882;45.624;11.698;2023-07-31T01:16:09;6.50;;;3.35;;
66927;SDS011;59882;45.624;11.698;2023-07-31T01:18:34;4.77;;;2.93;;
66927;SDS011;59882;45.624;11.698;2023-07-31T01:21:51;8.40;;;3.03;;
66927;SDS011;59882;45.624;11.698;2023-07-31T01:26:59;8.10;;;2.90;;
66927;SDS011;59882;45.624;11.698;2023-07-31T01:29:56;5.28;;;2.72;;
66927;SDS011;59882;45.624;11.698;2023-07-31T01:32:26;7.53;;;3.20;;
66927;SDS011;59882;45.624;11.698;2023-07-31T01:34:54;6.70;;;3.50;;
66927;SDS011;59882;45.624;11.698;2023-07-31T01:37:21;6.28;;;3.20;;
66927;SDS011;59882;45.624;11.698;2023-07-31T01:39:46;5.37;;;3.10;;
66927;SDS011;59882;45.624;11.698;2023-07-31T01:42:12;6.10;;;3.80;;
66927;SDS011;59882;45.624;11.698;2023-07-31T01:44:37;7.03;;;3.55;;
66927;SDS011;59882;45.624;11.698;2023-07-31T01:47:03;7.33;;;3.50;;
66927;SDS011;59882;45.624;11.698;2023-07-31T01:49:29;8.95;;;4.40;;
66927;SDS011;59882;45.624;11.698;2023-07-31T01:51:54;5.23;;;3.17;;
66927;SDS011;59882;45.624;11.698;2023-07-31T01:54:20;7.18;;;3.25;;
66927;SDS011;59882;45.624;11.698;2023-07-31T01:56:45;8.20;;;3.07;;
66927;SDS011;59882;45.624;11.698;2023-07-31T01:59:11;6.00;;;3.17;;
66927;SDS011;59882;45.624;11.698;2023-07-31T02:01:37;6.95;;;3.88;;
66927;SDS011;59882;45.624;11.698;2023-07-31T02:04:02;6.10;;;3.30;;
66927;SDS011;59882;45.624;11.698;2023-07-31T02:06:29;7.75;;;3.60;;
66927;SDS011;59882;45.624;11.698;2023-07-31T02:08:55;6.13;;;3.80;;
66927;SDS011;59882;45.624;11.698;2023-07-31T02:11:21;9.70;;;3.77;;
66927;SDS011;59882;45.624;11.698;2023-07-31T02:13:46;5.20;;;3.43;;
66927;SDS011;59882;45.624;11.698;2023-07-31T02:16:12;5.47;;;3.30;;
66927;SDS011;59882;45.624;11.698;2023-07-31T02:18:38;6.70;;;3.80;;
66927;SDS011;59882;45.624;11.698;2023-07-31T02:21:04;5.63;;;3.47;;
66927;SDS011;59882;45.624;11.698;2023-07-31T02:23:29;7.87;;;4.17;;
66927;SDS011;59882;45.624;11.698;2023-07-31T02:25:55;8.32;;;3.63;;
66927;SDS011;59882;45.624;11.698;2023-07-31T02:28:20;6.53;;;3.17;;
66927;SDS011;59882;45.624;11.698;2023-07-31T02:30:46;6.55;;;3.42;;
66927;SDS011;59882;45.624;11.698;2023-07-31T02:33:12;6.67;;;3.00;;
66927;SDS011;59882;45.624;11.698;2023-07-31T02:35:38;6.78;;;3.20;;
66927;SDS011;59882;45.624;11.698;2023-07-31T02:38:04;5.73;;;3.23;;
66927;SDS011;59882;45.624;11.698;2023-07-31T02:40:30;4.75;;;2.95;;
66927;SDS011;59882;45.624;11.698;2023-07-31T02:42:55;6.17;;;3.53;;
66927;SDS011;59882;45.624;11.698;2023-07-31T02:45:21;6.75;;;3.15;;
66927;SDS011;59882;45.624;11.698;2023-07-31T02:47:47;6.27;;;3.07;;
66927;SDS011;59882;45.624;11.698;2023-07-31T02:50:12;6.30;;;3.10;;
66927;SDS011;59882;45.624;11.698;2023-07-31T02:52:38;7.25;;;3.28;;
66927;SDS011;59882;45.624;11.698;2023-07-31T02:55:03;6.57;;;3.20;;
66927;SDS011;59882;45.624;11.698;2023-07-31T02:57:29;7.85;;;3.40;;
66927;SDS011;59882;45.624;11.698;2023-07-31T02:59:55;5.27;;;3.30;;
66927;SDS011;59882;45.624;11.698;2023-07-31T03:02:20;6.83;;;3.23;;
66927;SDS011;59882;45.624;11.698;2023-07-31T03:04:46;6.50;;;3.73;;
66927;SDS011;59882;45.624;11.698;2023-07-31T03:07:12;5.80;;;3.43;;
66927;SDS011;59882;45.624;11.698;2023-07-31T03:09:37;7.53;;;3.75;;
66927;SDS011;59882;45.624;11.698;2023-07-31T03:12:03;6.57;;;3.23;;
66927;SDS011;59882;45.624;11.698;2023-07-31T03:14:29;6.85;;;3.25;;
66927;SDS011;59882;45.624;11.698;2023-07-31T03:16:54;7.90;;;3.50;;
66927;SDS011;59882;45.624;11.698;2023-07-31T03:19:20;8.60;;;3.93;;
66927;SDS011;59882;45.624;11.698;2023-07-31T03:21:45;7.30;;;3.30;;
66927;SDS011;59882;45.624;11.698;2023-07-31T03:24:11;4.70;;;3.10;;
66927;SDS011;59882;45.624;11.698;2023-07-31T03:26:39;7.78;;;3.50;;
66927;SDS011;59882;45.624;11.698;2023-07-31T03:29:06;9.82;;;4.20;;
66927;SDS011;59882;45.624;11.698;2023-07-31T03:31:32;4.68;;;3.65;;
66927;SDS011;59882;45.624;11.698;2023-07-31T03:33:58;6.50;;;3.67;;
66927;SDS011;59882;45.624;11.698;2023-07-31T03:36:24;7.18;;;3.75;;
66927;SDS011;59882;45.624;11.698;2023-07-31T03:38:50;8.10;;;4.03;;
66927;SDS011;59882;45.624;11.698;2023-07-31T03:41:16;9.60;;;4.25;;
66927;SDS011;59882;45.624;11.698;2023-07-31T03:43:42;6.47;;;4.00;;
66927;SDS011;59882;45.624;11.698;2023-07-31T03:46:07;9.02;;;4.03;;
66927;SDS011;59882;45.624;11.698;2023-07-31T03:48:33;9.43;;;3.60;;
66927;SDS011;59882;45.624;11.698;2023-07-31T03:50:59;9.33;;;3.83;;
66927;SDS011;59882;45.624;11.698;2023-07-31T03:53:24;6.80;;;3.60;;
66927;SDS011;59882;45.624;11.698;2023-07-31T03:55:50;8.30;;;4.03;;
66927;SDS011;59882;45.624;11.698;2023-07-31T03:58:15;5.85;;;3.45;;
66927;SDS011;59882;45.624;11.698;2023-07-31T04:00:41;7.87;;;3.60;;
66927;SDS011;59882;45.624;11.698;2023-07-31T04:03:07;6.38;;;3.50;;
66927;SDS011;59882;45.624;11.698;2023-07-31T04:05:32;4.90;;;3.30;;
66927;SDS011;59882;45.624;11.698;2023-07-31T04:07:58;7.28;;;3.60;;
66927;SDS011;59882;45.624;11.698;2023-07-31T04:10:24;6.10;;;3.47;;
66927;SDS011;59882;45.624;11.698;2023-07-31T04:12:50;10.25;;;3.22;;
66927;SDS011;59882;45.624;11.698;2023-07-31T04:15:15;7.43;;;3.30;;
66927;SDS011;59882;45.624;11.698;2023-07-31T04:17:41;5.43;;;3.47;;
66927;SDS011;59882;45.624;11.698;2023-07-31T04:20:07;5.25;;;2.90;;
66927;SDS011;59882;45.624;11.698;2023-07-31T04:22:33;4.75;;;2.63;;
66927;SDS011;59882;45.624;11.698;2023-07-31T04:24:59;5.63;;;3.00;;
66927;SDS011;59882;45.624;11.698;2023-07-31T04:27:24;9.57;;;3.40;;
66927;SDS011;59882;45.624;11.698;2023-07-31T04:29:50;5.10;;;2.83;;
66927;SDS011;59882;45.624;11.698;2023-07-31T04:32:16;6.80;;;3.38;;
66927;SDS011;59882;45.624;11.698;2023-07-31T04:34:41;5.43;;;2.97;;
66927;SDS011;59882;45.624;11.698;2023-07-31T04:37:07;6.55;;;3.00;;
66927;SDS011;59882;45.624;11.698;2023-07-31T04:39:33;6.43;;;3.07;;
66927;SDS011;59882;45.624;11.698;2023-07-31T04:41:59;5.10;;;2.70;;
66927;SDS011;59882;45.624;11.698;2023-07-31T04:44:24;6.37;;;2.93;;
66927;SDS011;59882;45.624;11.698;2023-07-31T04:46:50;8.32;;;3.22;;
66927;SDS011;59882;45.624;11.698;2023-07-31T04:49:15;6.40;;;3.00;;
66927;SDS011;59882;45.624;11.698;2023-07-31T04:51:41;4.97;;;3.03;;
66927;SDS011;59882;45.624;11.698;2023-07-31T04:54:07;7.00;;;2.63;;
66927;SDS011;59882;45.624;11.698;2023-07-31T04:56:32;6.43;;;3.00;;
66927;SDS011;59882;45.624;11.698;2023-07-31T04:58:58;6.05;;;3.00;;
66927;SDS011;59882;45.624;11.698;2023-07-31T05:01:23;7.43;;;2.60;;
66927;SDS011;59882;45.624;11.698;2023-07-31T05:03:49;6.93;;;3.07;;
66927;SDS011;59882;45.624;11.698;2023-07-31T05:06:15;9.70;;;3.30;;
66927;SDS011;59882;45.624;11.698;2023-07-31T05:08:40;5.83;;;2.90;;
66927;SDS011;59882;45.624;11.698;2023-07-31T05:11:06;6.43;;;2.80;;
66927;SDS011;59882;45.624;11.698;2023-07-31T05:13:31;4.60;;;2.27;;
66927;SDS011;59882;45.624;11.698;2023-07-31T05:15:57;5.97;;;3.08;;
66927;SDS011;59882;45.624;11.698;2023-07-31T05:18:23;7.50;;;3.33;;
66927;SDS011;59882;45.624;11.698;2023-07-31T05:20:48;4.43;;;2.47;;
66927;SDS011;59882;45.624;11.698;2023-07-31T05:23:14;3.88;;;2.50;;
66927;SDS011;59882;45.624;11.698;2023-07-31T05:25:39;5.73;;;2.80;;
66927;SDS011;59882;45.624;11.698;2023-07-31T05:28:05;5.05;;;3.00;;
66927;SDS011;59882;45.624;11.698;2023-07-31T05:30:31;6.30;;;2.73;;
66927;SDS011;59882;45.624;11.698;2023-07-31T05:32:56;6.53;;;2.80;;
66927;SDS011;59882;45.624;11.698;2023-07-31T05:35:22;4.67;;;2.77;;
66927;SDS011;59882;45.624;11.698;2023-07-31T05:37:48;5.97;;;2.55;;
66927;SDS011;59882;45.624;11.698;2023-07-31T05:40:14;4.53;;;2.23;;
66927;SDS011;59882;45.624;11.698;2023-07-31T05:42:39;4.85;;;2.38;;
66927;SDS011;59882;45.624;11.698;2023-07-31T05:45:06;6.10;;;2.90;;
66927;SDS011;59882;45.624;11.698;2023-07-31T05:47:32;4.57;;;2.60;;
66927;SDS011;59882;45.624;11.698;2023-07-31T05:49:58;6.32;;;2.78;;
66927;SDS011;59882;45.624;11.698;2023-07-31T05:52:24;4.90;;;2.27;;
66927;SDS011;59882;45.624;11.698;2023-07-31T05:54:49;5.10;;;2.38;;
66927;SDS011;59882;45.624;11.698;2023-07-31T05:57:15;4.67;;;2.40;;
66927;SDS011;59882;45.624;11.698;2023-07-31T05:59:41;3.67;;;2.08;;
66927;SDS011;59882;45.624;11.698;2023-07-31T06:02:07;4.93;;;2.38;;
66927;SDS011;59882;45.624;11.698;2023-07-31T06:04:32;6.47;;;2.50;;
66927;SDS011;59882;45.624;11.698;2023-07-31T06:06:58;5.93;;;2.30;;
66927;SDS011;59882;45.624;11.698;2023-07-31T06:09:24;4.10;;;2.15;;
66927;SDS011;59882;45.624;11.698;2023-07-31T06:11:50;5.17;;;2.40;;
66927;SDS011;59882;45.624;11.698;2023-07-31T06:14:16;7.05;;;2.50;;
66927;SDS011;59882;45.624;11.698;2023-07-31T06:16:42;6.33;;;2.37;;
66927;SDS011;59882;45.624;11.698;2023-07-31T06:19:09;5.68;;;2.30;;
66927;SDS011;59882;45.624;11.698;2023-07-31T06:21:34;7.75;;;2.30;;
66927;SDS011;59882;45.624;11.698;2023-07-31T06:24:02;4.07;;;1.90;;
66927;SDS011;59882;45.624;11.698;2023-07-31T06:26:28;7.57;;;2.63;;
66927;SDS011;59882;45.624;11.698;2023-07-31T06:28:54;4.13;;;2.03;;
66927;SDS011;59882;45.624;11.698;2023-07-31T06:31:19;5.90;;;2.73;;
66927;SDS011;59882;45.624;11.698;2023-07-31T06:33:48;5.00;;;2.33;;
66927;SDS011;59882;45.624;11.698;2023-07-31T06:36:14;5.43;;;2.20;;
66927;SDS011;59882;45.624;11.698;2023-07-31T06:38:39;4.43;;;2.10;;
66927;SDS011;59882;45.624;11.698;2023-07-31T06:41:05;4.13;;;1.80;;
66927;SDS011;59882;45.624;11.698;2023-07-31T06:43:31;5.07;;;1.88;;
66927;SDS011;59882;45.624;11.698;2023-07-31T06:45:56;4.33;;;1.93;;
66927;SDS011;59882;45.624;11.698;2023-07-31T06:48:22;4.97;;;1.95;;
66927;SDS011;59882;45.624;11.698;2023-07-31T06:50:47;6.10;;;1.93;;
66927;SDS011;59882;45.624;11.698;2023-07-31T06:53:13;4.37;;;2.00;;
66927;SDS011;59882;45.624;11.698;2023-07-31T06:55:38;6.60;;;2.00;;
66927;SDS011;59882;45.624;11.698;2023-07-31T06:58:04;3.67;;;1.90;;
66927;SDS011;59882;45.624;11.698;2023-07-31T07:00:30;4.88;;;1.60;;
66927;SDS011;59882;45.624;11.698;2023-07-31T07:02:55;3.70;;;1.90;;
66927;SDS011;59882;45.624;11.698;2023-07-31T07:05:21;5.30;;;2.20;;
66927;SDS011;59882;45.624;11.698;2023-07-31T07:07:49;3.80;;;1.77;;
66927;SDS011;59882;45.624;11.698;2023-07-31T07:10:16;5.05;;;1.92;;
66927;SDS011;59882;45.624;11.698;2023-07-31T07:12:42;4.80;;;2.10;;
66927;SDS011;59882;45.624;11.698;2023-07-31T07:15:07;4.10;;;2.13;;
66927;SDS011;59882;45.624;11.698;2023-07-31T07:17:33;4.18;;;2.00;;
66927;SDS011;59882;45.624;11.698;2023-07-31T07:19:59;4.47;;;1.90;;
66927;SDS011;59882;45.624;11.698;2023-07-31T07:22:26;3.55;;;1.92;;
66927;SDS011;59882;45.624;11.698;2023-07-31T07:24:52;3.65;;;1.90;;
66927;SDS011;59882;45.624;11.698;2023-07-31T07:27:18;4.60;;;1.80;;
66927;SDS011;59882;45.624;11.698;2023-07-31T07:29:45;3.58;;;1.90;;
66927;SDS011;59882;45.624;11.698;2023-07-31T07:32:11;3.78;;;1.50;;
66927;SDS011;59882;45.624;11.698;2023-07-31T07:34:37;4.83;;;1.90;;
66927;SDS011;59882;45.624;11.698;2023-07-31T07:37:02;5.95;;;1.90;;
66927;SDS011;59882;45.624;11.698;2023-07-31T07:39:28;5.40;;;2.20;;
66927;SDS011;59882;45.624;11.698;2023-07-31T07:41:54;4.15;;;1.50;;
66927;SDS011;59882;45.624;11.698;2023-07-31T07:44:19;4.03;;;1.30;;
66927;SDS011;59882;45.624;11.698;2023-07-31T07:46:45;5.90;;;1.40;;
66927;SDS011;59882;45.624;11.698;2023-07-31T07:49:11;4.97;;;1.37;;
66927;SDS011;59882;45.624;11.698;2023-07-31T07:51:36;3.37;;;1.60;;
66927;SDS011;59882;45.624;11.698;2023-07-31T07:54:02;3.80;;;1.40;;
66927;SDS011;59882;45.624;11.698;2023-07-31T07:56:28;4.47;;;1.47;;
66927;SDS011;59882;45.624;11.698;2023-07-31T07:58:54;3.30;;;1.40;;
66927;SDS011;59882;45.624;11.698;2023-07-31T08:01:19;3.15;;;1.60;;
66927;SDS011;59882;45.624;11.698;2023-07-31T08:03:46;4.30;;;1.70;;
66927;SDS011;59882;45.624;11.698;2023-07-31T08:06:12;4.55;;;1.58;;
66927;SDS011;59882;45.624;11.698;2023-07-31T08:08:38;3.42;;;1.50;;
66927;SDS011;59882;45.624;11.698;2023-07-31T08:11:04;3.03;;;1.53;;
66927;SDS011;59882;45.624;11.698;2023-07-31T08:13:30;4.03;;;1.40;;
66927;SDS011;59882;45.624;11.698;2023-07-31T08:15:55;3.23;;;1.30;;
66927;SDS011;59882;45.624;11.698;2023-07-31T08:18:21;3.60;;;1.55;;
66927;SDS011;59882;45.624;11.698;2023-07-31T08:20:47;4.07;;;1.67;;
66927;SDS011;59882;45.624;11.698;2023-07-31T08:23:13;4.80;;;1.90;;
66927;SDS011;59882;45.624;11.698;2023-07-31T08:25:38;4.10;;;1.63;;
66927;SDS011;59882;45.624;11.698;2023-07-31T08:28:04;3.72;;;1.70;;
66927;SDS011;59882;45.624;11.698;2023-07-31T08:30:30;4.15;;;1.73;;
66927;SDS011;59882;45.624;11.698;2023-07-31T08:32:56;3.40;;;1.40;;
66927;SDS011;59882;45.624;11.698;2023-07-31T08:35:23;4.85;;;1.73;;
66927;SDS011;59882;45.624;11.698;2023-07-31T08:37:50;3.13;;;1.40;;
66927;SDS011;59882;45.624;11.698;2023-07-31T08:40:15;5.27;;;1.67;;
66927;SDS011;59882;45.624;11.698;2023-07-31T08:42:44;5.30;;;1.77;;
66927;SDS011;59882;45.624;11.698;2023-07-31T08:45:14;3.73;;;1.50;;
66927;SDS011;59882;45.624;11.698;2023-07-31T08:47:44;4.25;;;1.77;;
66927;SDS011;59882;45.624;11.698;2023-07-31T08:50:12;4.60;;;1.75;;
66927;SDS011;59882;45.624;11.698;2023-07-31T08:52:38;3.20;;;1.50;;
66927;SDS011;59882;45.624;11.698;2023-07-31T08:55:05;3.83;;;1.77;;
66927;SDS011;59882;45.624;11.698;2023-07-31T08:57:31;4.20;;;1.48;;
66927;SDS011;59882;45.624;11.698;2023-07-31T08:59:59;4.65;;;1.80;;
66927;SDS011;59882;45.624;11.698;2023-07-31T09:02:25;4.05;;;1.67;;
66927;SDS011;59882;45.624;11.698;2023-07-31T09:05:02;2.88;;;1.30;;
66927;SDS011;59882;45.624;11.698;2023-07-31T09:07:29;3.00;;;1.60;;
66927;SDS011;59882;45.624;11.698;2023-07-31T09:09:56;3.90;;;1.52;;
66927;SDS011;59882;45.624;11.698;2023-07-31T09:12:22;3.30;;;1.42;;
66927;SDS011;59882;45.624;11.698;2023-07-31T09:14:48;3.13;;;1.60;;
66927;SDS011;59882;45.624;11.698;2023-07-31T09:17:14;2.93;;;1.40;;
66927;SDS011;59882;45.624;11.698;2023-07-31T09:19:40;4.22;;;1.70;;
66927;SDS011;59882;45.624;11.698;2023-07-31T09:22:05;4.40;;;1.80;;
66927;SDS011;59882;45.624;11.698;2023-07-31T09:24:32;4.38;;;1.73;;
66927;SDS011;59882;45.624;11.698;2023-07-31T09:26:59;4.07;;;1.40;;
66927;SDS011;59882;45.624;11.698;2023-07-31T09:29:26;3.10;;;1.45;;
66927;SDS011;59882;45.624;11.698;2023-07-31T09:31:54;4.25;;;1.42;;
66927;SDS011;59882;45.624;11.698;2023-07-31T09:34:20;4.00;;;1.50;;
66927;SDS011;59882;45.624;11.698;2023-07-31T09:36:54;2.80;;;1.33;;
66927;SDS011;59882;45.624;11.698;2023-07-31T09:39:20;4.13;;;1.83;;
66927;SDS011;59882;45.624;11.698;2023-07-31T09:41:55;4.35;;;1.80;;
66927;SDS011;59882;45.624;11.698;2023-07-31T09:44:21;3.97;;;1.50;;
66927;SDS011;59882;45.624;11.698;2023-07-31T09:46:47;4.25;;;1.88;;
66927;SDS011;59882;45.624;11.698;2023-07-31T09:49:13;4.38;;;1.58;;
66927;SDS011;59882;45.624;11.698;2023-07-31T09:51:40;4.13;;;1.35;;
66927;SDS011;59882;45.624;11.698;2023-07-31T09:54:10;3.65;;;1.48;;
66927;SDS011;59882;45.624;11.698;2023-07-31T09:56:42;5.73;;;1.70;;
66927;SDS011;59882;45.624;11.698;2023-07-31T09:59:13;4.07;;;1.58;;
66927;SDS011;59882;45.624;11.698;2023-07-31T10:01:45;3.50;;;1.60;;
66927;SDS011;59882;45.624;11.698;2023-07-31T10:04:11;3.60;;;1.65;;
66927;SDS011;59882;45.624;11.698;2023-07-31T10:06:38;4.32;;;1.50;;
66927;SDS011;59882;45.624;11.698;2023-07-31T10:09:06;3.00;;;1.50;;
66927;SDS011;59882;45.624;11.698;2023-07-31T10:11:44;4.68;;;2.00;;
66927;SDS011;59882;45.624;11.698;2023-07-31T10:14:19;4.38;;;1.80;;
66927;SDS011;59882;45.624;11.698;2023-07-31T10:16:45;4.95;;;1.67;;
66927;SDS011;59882;45.624;11.698;2023-07-31T10:19:12;3.20;;;1.70;;
66927;SDS011;59882;45.624;11.698;2023-07-31T10:21:37;3.53;;;1.50;;
66927;SDS011;59882;45.624;11.698;2023-07-31T10:24:04;4.00;;;1.60;;
66927;SDS011;59882;45.624;11.698;2023-07-31T10:26:30;4.53;;;1.50;;
66927;SDS011;59882;45.624;11.698;2023-07-31T10:28:58;5.07;;;1.63;;
66927;SDS011;59882;45.624;11.698;2023-07-31T10:31:24;4.40;;;1.35;;
66927;SDS011;59882;45.624;11.698;2023-07-31T10:33:52;3.20;;;1.15;;
66927;SDS011;59882;45.624;11.698;2023-07-31T10:36:19;3.70;;;1.17;;
66927;SDS011;59882;45.624;11.698;2023-07-31T10:38:45;4.65;;;1.27;;
66927;SDS011;59882;45.624;11.698;2023-07-31T10:41:14;3.55;;;1.75;;
66927;SDS011;59882;45.624;11.698;2023-07-31T10:43:39;3.57;;;1.50;;
66927;SDS011;59882;45.624;11.698;2023-07-31T10:46:09;3.42;;;1.30;;
66927;SDS011;59882;45.624;11.698;2023-07-31T10:48:39;2.95;;;1.40;;
66927;SDS011;59882;45.624;11.698;2023-07-31T10:51:09;4.28;;;1.60;;
66927;SDS011;59882;45.624;11.698;2023-07-31T10:53:37;3.27;;;1.50;;
66927;SDS011;59882;45.624;11.698;2023-07-31T10:56:09;4.35;;;1.67;;
66927;SDS011;59882;45.624;11.698;2023-07-31T10:58:40;4.22;;;1.20;;
66927;SDS011;59882;45.624;11.698;2023-07-31T11:01:09;4.78;;;1.40;;
66927;SDS011;59882;45.624;11.698;2023-07-31T11:03:45;3.43;;;1.43;;
66927;SDS011;59882;45.624;11.698;2023-07-31T11:06:12;3.85;;;1.10;;
66927;SDS011;59882;45.624;11.698;2023-07-31T11:08:42;4.10;;;1.65;;
66927;SDS011;59882;45.624;11.698;2023-07-31T11:11:10;4.55;;;1.58;;
66927;SDS011;59882;45.624;11.698;2023-07-31T11:13:44;3.90;;;1.67;;
66927;SDS011;59882;45.624;11.698;2023-07-31T11:16:24;4.03;;;1.40;;
66927;SDS011;59882;45.624;11.698;2023-07-31T11:18:50;3.58;;;1.55;;
66927;SDS011;59882;45.624;11.698;2023-07-31T11:21:19;4.53;;;1.15;;
66927;SDS011;59882;45.624;11.698;2023-07-31T11:23:49;4.25;;;1.75;;
66927;SDS011;59882;45.624;11.698;2023-07-31T11:26:16;4.00;;;1.40;;
66927;SDS011;59882;45.624;11.698;2023-07-31T11:28:42;3.53;;;1.50;;
66927;SDS011;59882;45.624;11.698;2023-07-31T11:31:08;3.88;;;1.70;;
66927;SDS011;59882;45.624;11.698;2023-07-31T11:33:35;3.10;;;1.50;;
66927;SDS011;59882;45.624;11.698;2023-07-31T11:36:00;4.70;;;1.70;;
66927;SDS011;59882;45.624;11.698;2023-07-31T11:38:27;3.87;;;1.37;;
66927;SDS011;59882;45.624;11.698;2023-07-31T11:40:58;3.00;;;1.40;;
66927;SDS011;59882;45.624;11.698;2023-07-31T11:43:28;3.28;;;1.50;;
66927;SDS011;59882;45.624;11.698;2023-07-31T11:45:55;4.35;;;1.70;;
66927;SDS011;59882;45.624;11.698;2023-07-31T11:48:23;3.50;;;2.05;;
66927;SDS011;59882;45.624;11.698;2023-07-31T11:50:55;3.85;;;1.63;;
66927;SDS011;59882;45.624;11.698;2023-07-31T11:53:26;3.63;;;1.20;;
66927;SDS011;59882;45.624;11.698;2023-07-31T11:55:57;5.53;;;1.58;;
66927;SDS011;59882;45.624;11.698;2023-07-31T11:58:24;5.00;;;1.70;;
66927;SDS011;59882;45.624;11.698;2023-07-31T12:00:50;3.70;;;1.70;;
66927;SDS011;59882;45.624;11.698;2023-07-31T12:03:16;2.60;;;1.20;;
66927;SDS011;59882;45.624;11.698;2023-07-31T12:05:43;4.20;;;1.47;;
66927;SDS011;59882;45.624;11.698;2023-07-31T12:08:10;4.55;;;1.80;;
66927;SDS011;59882;45.624;11.698;2023-07-31T12:10:39;3.88;;;1.25;;
66927;SDS011;59882;45.624;11.698;2023-07-31T12:13:07;3.80;;;1.70;;
66927;SDS011;59882;45.624;11.698;2023-07-31T12:18:06;3.90;;;1.40;;
66927;SDS011;59882;45.624;11.698;2023-07-31T12:20:34;4.07;;;1.63;;
66927;SDS011;59882;45.624;11.698;2023-07-31T12:23:00;3.90;;;1.48;;
66927;SDS011;59882;45.624;11.698;2023-07-31T12:25:30;4.15;;;1.67;;
66927;SDS011;59882;45.624;11.698;2023-07-31T12:27:57;4.03;;;1.25;;
66927;SDS011;59882;45.624;11.698;2023-07-31T12:30:27;5.00;;;1.80;;
66927;SDS011;59882;45.624;11.698;2023-07-31T12:33:03;3.53;;;1.80;;
66927;SDS011;59882;45.624;11.698;2023-07-31T12:35:37;3.50;;;1.70;;
66927;SDS011;59882;45.624;11.698;2023-07-31T12:38:05;3.95;;;1.50;;
66927;SDS011;59882;45.624;11.698;2023-07-31T12:40:31;3.77;;;1.90;;
66927;SDS011;59882;45.624;11.698;2023-07-31T12:42:57;3.78;;;1.67;;
66927;SDS011;59882;45.624;11.698;2023-07-31T12:45:23;3.70;;;1.60;;
66927;SDS011;59882;45.624;11.698;2023-07-31T12:47:48;4.13;;;1.60;;
66927;SDS011;59882;45.624;11.698;2023-07-31T12:50:15;4.90;;;1.83;;
66927;SDS011;59882;45.624;11.698;2023-07-31T12:52:41;3.30;;;1.93;;
66927;SDS011;59882;45.624;11.698;2023-07-31T12:55:06;3.78;;;1.52;;
66927;SDS011;59882;45.624;11.698;2023-07-31T12:57:32;3.45;;;1.60;;
66927;SDS011;59882;45.624;11.698;2023-07-31T12:59:58;6.30;;;2.10;;
66927;SDS011;59882;45.624;11.698;2023-07-31T13:02:23;3.33;;;1.90;;
66927;SDS011;59882;45.624;11.698;2023-07-31T13:04:49;3.42;;;2.00;;
66927;SDS011;59882;45.624;11.698;2023-07-31T13:07:15;3.40;;;1.70;;
66927;SDS011;59882;45.624;11.698;2023-07-31T13:09:41;3.63;;;2.00;;
66927;SDS011;59882;45.624;11.698;2023-07-31T13:12:07;3.63;;;2.10;;
66927;SDS011;59882;45.624;11.698;2023-07-31T13:14:33;2.90;;;1.90;;
66927;SDS011;59882;45.624;11.698;2023-07-31T13:16:59;3.40;;;2.63;;
66927;SDS011;59882;45.624;11.698;2023-07-31T13:19:24;4.35;;;2.88;;
66927;SDS011;59882;45.624;11.698;2023-07-31T13:21:50;3.33;;;2.47;;
66927;SDS011;59882;45.624;11.698;2023-07-31T13:24:15;4.45;;;3.17;;
66927;SDS011;59882;45.624;11.698;2023-07-31T13:26:41;3.85;;;2.80;;
66927;SDS011;59882;45.624;11.698;2023-07-31T13:29:07;4.70;;;3.47;;
66927;SDS011;59882;45.624;11.698;2023-07-31T13:31:32;3.53;;;3.20;;
66927;SDS011;59882;45.624;11.698;2023-07-31T13:33:58;4.97;;;3.07;;
66927;SDS011;59882;45.624;11.698;2023-07-31T13:36:23;4.37;;;3.23;;
66927;SDS011;59882;45.624;11.698;2023-07-31T13:38:49;3.75;;;3.40;;
66927;SDS011;59882;45.624;11.698;2023-07-31T13:41:15;5.90;;;3.53;;
66927;SDS011;59882;45.624;11.698;2023-07-31T13:43:40;5.15;;;2.70;;
66927;SDS011;59882;45.624;11.698;2023-07-31T13:46:06;3.87;;;3.00;;
66927;SDS011;59882;45.624;11.698;2023-07-31T13:48:35;3.78;;;3.38;;
66927;SDS011;59882;45.624;11.698;2023-07-31T13:51:01;3.88;;;3.33;;
66927;SDS011;59882;45.624;11.698;2023-07-31T13:53:27;3.60;;;2.93;;
66927;SDS011;59882;45.624;11.698;2023-07-31T13:55:53;5.50;;;3.55;;
66927;SDS011;59882;45.624;11.698;2023-07-31T13:58:18;5.30;;;3.83;;
66927;SDS011;59882;45.624;11.698;2023-07-31T14:00:45;4.20;;;2.97;;
66927;SDS011;59882;45.624;11.698;2023-07-31T14:03:11;3.97;;;3.10;;
66927;SDS011;59882;45.624;11.698;2023-07-31T14:05:37;4.60;;;3.55;;
66927;SDS011;59882;45.624;11.698;2023-07-31T14:08:02;4.33;;;3.93;;
66927;SDS011;59882;45.624;11.698;2023-07-31T14:10:28;3.90;;;3.08;;
66927;SDS011;59882;45.624;11.698;2023-07-31T14:12:54;4.33;;;3.90;;
66927;SDS011;59882;45.624;11.698;2023-07-31T14:15:20;5.28;;;3.92;;
66927;SDS011;59882;45.624;11.698;2023-07-31T14:17:45;4.90;;;4.40;;
66927;SDS011;59882;45.624;11.698;2023-07-31T14:20:11;4.80;;;4.30;;
66927;SDS011;59882;45.624;11.698;2023-07-31T14:22:37;4.63;;;4.23;;
66927;SDS011;59882;45.624;11.698;2023-07-31T14:25:03;5.00;;;4.50;;
66927;SDS011;59882;45.624;11.698;2023-07-31T14:27:29;4.75;;;4.20;;
66927;SDS011;59882;45.624;11.698;2023-07-31T14:29:54;7.57;;;4.00;;
66927;SDS011;59882;45.624;11.698;2023-07-31T14:32:21;4.47;;;4.07;;
66927;SDS011;59882;45.624;11.698;2023-07-31T14:34:48;5.45;;;3.67;;
66927;SDS011;59882;45.624;11.698;2023-07-31T14:37:14;5.00;;;3.90;;
66927;SDS011;59882;45.624;11.698;2023-07-31T14:39:39;4.90;;;4.45;;